Terminal Aerodrome Forecast
Issued by NWS Cleveland, OH

Home | Current Version | Previous Version | Text Only | Print | Product List | Glossary On
Versions: 1 2 3 4 5 6 7 8 9 10 11 12 13 14 15 16 17 18 19 20 21 22 23 24
000
FTUS41 KCLE 190500
TAFYNG
TAF
KYNG 190531Z 1906/2006 26006KT 3SM -FZDZSN BR OVC004
     FM191000 28005KT 6SM -SN OVC008
     FM191300 30005KT P6SM OVC012=

USA.gov is the U.S. government's official web portal to all federal, state and local government web resources and services.